createdAt,value
2019-05-18T00:02:17.097Z,12.97
2019-05-18T00:04:46.958Z,14.70
2019-05-18T00:07:16.776Z,13.50
2019-05-18T00:09:46.694Z,14.00
2019-05-18T00:12:16.574Z,15.50
2019-05-18T00:14:46.472Z,14.37
2019-05-18T00:17:24.885Z,15.27
2019-05-18T00:19:48.310Z,15.20
2019-05-18T00:22:19.644Z,15.03
2019-05-18T00:24:50.693Z,14.03
2019-05-18T00:27:20.572Z,15.40
2019-05-18T00:29:50.372Z,14.17
2019-05-18T00:32:20.244Z,13.20
2019-05-18T00:34:50.288Z,16.13
2019-05-18T00:37:20.398Z,15.10
2019-05-18T00:39:51.323Z,15.90
2019-05-18T00:42:26.958Z,15.73
2019-05-18T00:44:56.942Z,16.53
2019-05-18T00:47:40.286Z,15.83
2019-05-18T00:49:58.499Z,16.80
2019-05-18T00:52:28.837Z,15.40
2019-05-18T00:54:58.813Z,17.00
2019-05-18T00:57:31.866Z,16.87
2019-05-18T01:00:03.966Z,16.20
2019-05-18T01:02:34.126Z,16.93
2019-05-18T01:05:04.582Z,15.50
2019-05-18T01:07:34.723Z,16.87
2019-05-18T01:10:05.564Z,16.40
2019-05-18T01:12:35.579Z,16.47
2019-05-18T01:15:06.256Z,16.70
2019-05-18T01:17:38.826Z,16.07
2019-05-18T01:20:11.398Z,17.53
2019-05-18T01:22:41.210Z,16.83
2019-05-18T01:25:16.284Z,18.43
2019-05-18T01:27:44.884Z,17.23
2019-05-18T01:30:14.842Z,18.00
2019-05-18T01:32:44.758Z,17.97
2019-05-18T01:35:14.981Z,18.13
2019-05-18T01:37:45.002Z,18.03
2019-05-18T01:40:15.307Z,19.37
2019-05-18T01:42:45.442Z,16.90
2019-05-18T01:45:17.262Z,17.17
2019-05-18T01:47:51.562Z,19.40
2019-05-18T01:50:23.685Z,18.27
2019-05-18T01:52:53.388Z,16.50
2019-05-18T01:55:24.088Z,17.80
2019-05-18T01:57:54.637Z,18.77
2019-05-18T02:00:24.845Z,18.30
2019-05-18T02:02:57.500Z,17.70
2019-05-18T02:05:27.422Z,19.70
2019-05-18T02:07:57.804Z,17.20
2019-05-18T02:10:27.723Z,19.80
2019-05-18T02:12:57.812Z,19.53
2019-05-18T02:15:27.809Z,19.83
2019-05-18T02:17:57.787Z,20.20
2019-05-18T02:20:28.109Z,19.87
2019-05-18T02:22:58.354Z,19.70
2019-05-18T02:25:28.702Z,19.63
2019-05-18T02:27:59.234Z,20.43
2019-05-18T02:30:29.285Z,20.00
2019-05-18T02:33:00.672Z,19.60
2019-05-18T02:35:30.672Z,20.63
2019-05-18T02:38:19.305Z,22.00
2019-05-18T02:40:49.745Z,19.17
2019-05-18T02:43:22.761Z,20.57
2019-05-18T02:45:52.850Z,18.90
2019-05-18T02:48:22.766Z,18.10
2019-05-18T02:50:52.900Z,20.90
2019-05-18T02:53:22.978Z,21.03
2019-05-18T02:55:52.992Z,21.37
2019-05-18T02:58:23.256Z,20.60
2019-05-18T03:00:53.833Z,21.70
2019-05-18T03:03:25.756Z,21.57
2019-05-18T03:05:59.457Z,20.93
2019-05-18T03:08:29.769Z,20.60
2019-05-18T03:10:59.859Z,20.43
2019-05-18T03:13:29.816Z,23.30
2019-05-18T03:15:59.703Z,20.60
2019-05-18T03:18:29.686Z,20.67
2019-05-18T03:21:01.365Z,22.23
2019-05-18T03:23:31.222Z,20.90
2019-05-18T03:26:01.448Z,21.80
2019-05-18T03:28:31.399Z,20.90
2019-05-18T03:31:03.078Z,21.13
2019-05-18T03:33:33.171Z,20.33
2019-05-18T03:36:03.111Z,22.40
2019-05-18T03:38:32.960Z,21.67
2019-05-18T03:41:02.958Z,20.70
2019-05-18T03:43:32.833Z,21.80
2019-05-18T03:46:03.028Z,22.10
2019-05-18T03:48:34.107Z,23.07
2019-05-18T03:51:04.505Z,21.30
2019-05-18T03:53:34.917Z,22.77
2019-05-18T03:56:05.150Z,21.90
2019-05-18T03:58:35.040Z,22.07
2019-05-18T04:01:05.229Z,21.00
2019-05-18T04:03:35.833Z,22.17
2019-05-18T04:06:06.030Z,22.47
2019-05-18T04:08:36.090Z,22.63
2019-05-18T04:11:09.631Z,22.50
2019-05-18T04:13:39.498Z,22.33
2019-05-18T04:16:13.096Z,20.70
2019-05-18T04:18:51.650Z,23.30
2019-05-18T04:21:22.571Z,21.10
2019-05-18T04:24:01.240Z,23.00
2019-05-18T04:26:31.273Z,23.23
2019-05-18T04:29:01.171Z,21.80
2019-05-18T04:31:33.122Z,21.30
2019-05-18T04:34:02.860Z,21.23
2019-05-18T04:36:32.785Z,21.67
2019-05-18T04:39:05.713Z,21.90
2019-05-18T04:41:38.582Z,23.40
2019-05-18T04:44:11.373Z,19.97
2019-05-18T04:46:41.489Z,21.67
2019-05-18T04:49:12.892Z,21.43
2019-05-18T04:51:42.820Z,23.47
2019-05-18T04:54:12.931Z,21.70
2019-05-18T04:56:43.354Z,22.53
2019-05-18T04:59:13.507Z,23.10
2019-05-18T05:01:43.492Z,21.40
2019-05-18T05:04:14.266Z,21.80
2019-05-18T05:06:44.732Z,21.60
2019-05-18T05:09:16.389Z,20.07
2019-05-18T05:11:51.251Z,20.80
2019-05-18T05:14:22.395Z,20.10
2019-05-18T05:16:52.957Z,18.73
2019-05-18T05:19:23.172Z,20.03
2019-05-18T05:21:53.348Z,21.20
2019-05-18T05:24:23.221Z,18.60
2019-05-18T05:26:53.319Z,19.67
2019-05-18T05:29:23.177Z,19.60
2019-05-18T05:31:54.452Z,19.47
2019-05-18T05:34:24.250Z,18.43
2019-05-18T05:36:54.089Z,18.77
2019-05-18T05:39:23.912Z,18.20
2019-05-18T05:41:53.803Z,18.60
2019-05-18T05:44:23.703Z,17.73
2019-05-18T05:46:53.670Z,16.60
2019-05-18T05:49:23.723Z,17.90
2019-05-18T05:51:53.571Z,17.60
2019-05-18T05:54:23.622Z,17.47
2019-05-18T05:56:53.580Z,17.10
2019-05-18T05:59:23.552Z,17.13
2019-05-18T06:01:53.530Z,18.20
2019-05-18T06:04:23.397Z,15.30
2019-05-18T06:06:53.574Z,15.77
2019-05-18T06:09:23.378Z,16.10
2019-05-18T06:11:53.224Z,16.90
2019-05-18T06:14:23.116Z,15.87
2019-05-18T06:16:53.068Z,15.07
2019-05-18T06:19:22.962Z,14.87
2019-05-18T06:21:52.738Z,14.37
2019-05-18T06:24:22.735Z,13.03
2019-05-18T06:26:52.696Z,13.20
2019-05-18T06:29:22.428Z,12.80
2019-05-18T06:31:52.202Z,11.53
2019-05-18T06:34:21.952Z,11.53
2019-05-18T06:36:55.454Z,11.70
2019-05-18T06:39:23.727Z,11.73
2019-05-18T06:41:53.500Z,11.03
2019-05-18T06:44:23.282Z,11.00
2019-05-18T06:46:54.965Z,9.70
2019-05-18T06:49:24.737Z,9.00
2019-05-18T06:51:54.556Z,10.37
2019-05-18T06:54:24.421Z,9.63
2019-05-18T06:56:56.176Z,8.63
2019-05-18T06:59:27.814Z,9.10
2019-05-18T07:01:57.788Z,9.00
2019-05-18T07:04:31.171Z,9.97
2019-05-18T07:07:01.010Z,10.77
2019-05-18T07:09:30.815Z,9.20
2019-05-18T07:12:00.730Z,8.87
2019-05-18T07:14:33.883Z,8.27
2019-05-18T07:17:03.757Z,8.63
2019-05-18T07:19:33.757Z,12.00
2019-05-18T07:22:03.643Z,9.33
2019-05-18T07:24:33.460Z,8.00
2019-05-18T07:27:03.418Z,7.83
2019-05-18T07:29:33.109Z,6.90
2019-05-18T07:32:03.035Z,7.30
2019-05-18T07:34:32.854Z,7.37
2019-05-18T07:37:02.640Z,7.37
2019-05-18T07:39:35.491Z,6.50
2019-05-18T07:42:04.022Z,6.40
2019-05-18T07:44:34.241Z,7.17
2019-05-18T07:47:04.126Z,6.63
2019-05-18T07:49:33.904Z,6.30
2019-05-18T07:52:03.666Z,6.73
2019-05-18T07:54:33.668Z,6.73
2019-05-18T07:57:05.675Z,6.90
2019-05-18T07:59:35.575Z,7.40
2019-05-18T08:02:05.900Z,6.83
2019-05-18T08:04:35.651Z,7.00
2019-05-18T08:07:05.439Z,6.83
2019-05-18T08:09:35.351Z,6.63
2019-05-18T08:12:05.039Z,7.73
2019-05-18T08:14:34.851Z,6.97
2019-05-18T08:17:05.523Z,6.80
2019-05-18T08:19:38.395Z,7.20
2019-05-18T08:22:08.384Z,7.87
2019-05-18T08:24:38.245Z,7.80
2019-05-18T08:27:07.958Z,7.13
2019-05-18T08:29:38.004Z,7.97
2019-05-18T08:32:09.075Z,6.73
2019-05-18T08:34:40.041Z,8.23
2019-05-18T08:37:09.755Z,8.93
2019-05-18T08:39:39.513Z,8.40
2019-05-18T08:42:10.504Z,7.03
2019-05-18T08:44:40.279Z,11.13
2019-05-18T08:47:11.058Z,7.83
2019-05-18T08:49:40.870Z,7.50
2019-05-18T08:52:10.641Z,8.33
2019-05-18T08:54:40.420Z,6.43
2019-05-18T08:57:10.165Z,6.60
2019-05-18T08:59:40.112Z,5.87
2019-05-18T09:02:11.161Z,6.00
2019-05-18T09:04:40.931Z,7.10
2019-05-18T09:07:10.777Z,6.10
2019-05-18T09:09:40.532Z,6.43
2019-05-18T09:12:10.317Z,6.20
2019-05-18T09:14:40.208Z,6.37
2019-05-18T09:17:10.080Z,6.40
2019-05-18T09:19:39.909Z,5.90
2019-05-18T09:22:22.445Z,6.83
2019-05-18T09:24:41.091Z,7.33
2019-05-18T09:27:10.880Z,7.53
2019-05-18T09:29:40.649Z,5.93
2019-05-18T09:32:10.913Z,6.30
2019-05-18T09:34:40.791Z,6.83
2019-05-18T09:37:10.625Z,6.43
2019-05-18T09:39:40.755Z,6.30
2019-05-18T09:42:10.522Z,6.47
2019-05-18T09:44:40.238Z,6.07
2019-05-18T09:47:10.111Z,7.30
2019-05-18T09:49:39.810Z,6.30
2019-05-18T09:52:09.678Z,5.30
2019-05-18T09:54:39.577Z,5.70
2019-05-18T09:57:09.477Z,5.70
2019-05-18T09:59:39.221Z,4.73
2019-05-18T10:02:09.032Z,5.83
2019-05-18T10:04:38.783Z,4.90
2019-05-18T10:07:08.506Z,5.27
2019-05-18T10:09:39.616Z,5.27
2019-05-18T10:12:09.764Z,5.17
2019-05-18T10:14:39.462Z,5.50
2019-05-18T10:17:09.315Z,4.43
2019-05-18T10:19:39.077Z,4.73
2019-05-18T10:22:08.790Z,5.30
2019-05-18T10:24:38.483Z,4.10
2019-05-18T10:27:08.153Z,5.30
2019-05-18T10:29:37.888Z,4.03
2019-05-18T10:32:07.763Z,4.40
2019-05-18T10:34:37.466Z,4.60
2019-05-18T10:37:07.289Z,4.67
2019-05-18T10:39:38.795Z,4.60
2019-05-18T10:42:08.628Z,4.13
2019-05-18T10:44:38.355Z,4.70
2019-05-18T10:47:08.118Z,4.17
2019-05-18T10:49:37.909Z,4.07
2019-05-18T10:52:07.814Z,4.27
2019-05-18T10:54:37.566Z,4.57
2019-05-18T10:57:07.336Z,4.53
2019-05-18T10:59:37.036Z,4.13
2019-05-18T11:02:06.989Z,4.20
2019-05-18T11:04:36.774Z,4.47
2019-05-18T11:07:06.715Z,6.27
2019-05-18T11:09:36.444Z,6.27
2019-05-18T11:12:06.124Z,6.40
2019-05-18T11:14:36.505Z,6.60
2019-05-18T11:17:06.232Z,6.03
2019-05-18T11:19:36.000Z,6.13
2019-05-18T11:22:05.818Z,5.80
2019-05-18T11:24:35.604Z,4.70
2019-05-18T11:27:05.362Z,4.37
2019-05-18T11:29:35.112Z,3.77
2019-05-18T11:32:04.890Z,4.30
2019-05-18T11:34:34.654Z,3.77
2019-05-18T11:37:04.437Z,3.83
2019-05-18T11:39:34.282Z,4.00
2019-05-18T11:42:05.129Z,3.87
2019-05-18T11:44:34.811Z,4.70
2019-05-18T11:47:04.677Z,3.53
2019-05-18T11:49:34.354Z,3.40
2019-05-18T11:52:04.238Z,3.20
2019-05-18T11:54:34.122Z,3.10
2019-05-18T11:57:04.007Z,3.40
2019-05-18T11:59:33.827Z,3.43
2019-05-18T12:02:04.778Z,3.70
2019-05-18T12:04:34.554Z,4.07
2019-05-18T12:07:04.365Z,4.27
2019-05-18T12:09:34.154Z,3.70
2019-05-18T12:12:03.894Z,3.40
2019-05-18T12:14:33.652Z,4.10
2019-05-18T12:17:03.335Z,3.90
2019-05-18T12:19:33.077Z,6.03
2019-05-18T12:22:02.988Z,4.77
2019-05-18T12:24:32.961Z,3.10
2019-05-18T12:27:02.795Z,3.50
2019-05-18T12:29:32.595Z,3.90
2019-05-18T12:32:02.317Z,4.73
2019-05-18T12:34:32.377Z,3.20
2019-05-18T12:37:02.277Z,3.43
2019-05-18T12:39:32.345Z,3.07
2019-05-18T12:42:02.135Z,3.03
2019-05-18T12:44:31.971Z,2.93
2019-05-18T12:47:01.872Z,3.17
2019-05-18T12:49:32.761Z,3.17
2019-05-18T12:52:02.702Z,2.20
2019-05-18T12:54:45.655Z,2.33
2019-05-18T12:57:04.291Z,3.13
2019-05-18T12:59:34.068Z,3.60
2019-05-18T13:02:03.867Z,2.97
2019-05-18T13:04:33.796Z,3.10
2019-05-18T13:07:03.690Z,2.83
2019-05-18T13:09:33.575Z,3.00
2019-05-18T13:12:03.401Z,2.30
2019-05-18T13:14:33.221Z,4.20
2019-05-18T13:17:02.982Z,2.27
2019-05-18T13:19:32.773Z,2.90
2019-05-18T13:22:02.475Z,2.67
2019-05-18T13:24:44.296Z,2.97
2019-05-18T13:27:03.913Z,2.87
2019-05-18T13:29:33.694Z,2.90
2019-05-18T13:32:04.537Z,2.23
2019-05-18T13:34:34.349Z,2.20
2019-05-18T13:37:04.114Z,2.10
2019-05-18T13:39:33.854Z,1.90
2019-05-18T13:42:03.671Z,2.60
2019-05-18T13:44:33.426Z,2.37
2019-05-18T13:47:03.120Z,2.50
2019-05-18T13:49:32.941Z,2.37
2019-05-18T13:52:02.590Z,2.10
2019-05-18T13:54:32.378Z,2.47
2019-05-18T13:57:02.255Z,2.03
2019-05-18T13:59:32.407Z,2.70
2019-05-18T14:02:02.171Z,2.20
2019-05-18T14:04:32.140Z,2.60
2019-05-18T14:07:01.815Z,2.47
2019-05-18T14:09:31.533Z,2.10
2019-05-18T14:12:01.229Z,3.37
2019-05-18T14:14:31.014Z,3.90
2019-05-18T14:17:01.192Z,2.57
2019-05-18T14:19:31.413Z,2.37
2019-05-18T14:22:01.229Z,2.47
2019-05-18T14:24:31.015Z,2.40
2019-05-18T14:27:01.015Z,2.90
2019-05-18T14:29:30.884Z,1.67
2019-05-18T14:32:00.600Z,2.47
2019-05-18T14:34:30.500Z,3.20
2019-05-18T14:37:00.461Z,2.13
2019-05-18T14:39:30.151Z,2.50
2019-05-18T14:41:59.875Z,2.40
2019-05-18T14:44:29.613Z,2.67
2019-05-18T14:46:59.489Z,6.10
2019-05-18T14:49:29.295Z,2.07
2019-05-18T14:52:01.625Z,2.47
2019-05-18T14:54:31.341Z,2.10
2019-05-18T14:57:01.243Z,2.27
2019-05-18T14:59:33.107Z,2.47
2019-05-18T15:02:02.816Z,2.20
2019-05-18T15:04:32.587Z,1.90
2019-05-18T15:07:02.285Z,2.23
2019-05-18T15:09:31.955Z,2.50
2019-05-18T15:12:01.722Z,3.00
2019-05-18T15:14:31.664Z,2.30
2019-05-18T15:17:01.451Z,2.00
2019-05-18T15:19:31.243Z,2.30
2019-05-18T15:22:01.196Z,2.20
2019-05-18T15:24:31.144Z,1.80
2019-05-18T15:27:01.005Z,2.17
2019-05-18T15:29:30.758Z,2.40
2019-05-18T15:32:00.596Z,2.73
2019-05-18T15:34:30.480Z,2.30
2019-05-18T15:37:00.240Z,2.90
2019-05-18T15:39:29.973Z,2.50
2019-05-18T15:41:59.670Z,2.40
2019-05-18T15:44:29.425Z,1.90
2019-05-18T15:46:59.184Z,1.90
2019-05-18T15:49:28.979Z,2.13
2019-05-18T15:51:58.698Z,1.90
2019-05-18T15:54:28.445Z,2.27
2019-05-18T15:56:58.185Z,2.60
2019-05-18T15:59:27.969Z,2.50
2019-05-18T16:01:57.786Z,4.10
2019-05-18T16:04:27.556Z,4.27
2019-05-18T16:06:57.283Z,2.37
2019-05-18T16:09:27.037Z,1.93
2019-05-18T16:11:56.829Z,2.33
2019-05-18T16:14:26.563Z,2.37
2019-05-18T16:16:56.322Z,2.80
2019-05-18T16:19:26.126Z,2.37
2019-05-18T16:21:55.849Z,2.43
2019-05-18T16:24:25.548Z,3.17
2019-05-18T16:26:55.443Z,2.43
2019-05-18T16:29:25.215Z,2.30
2019-05-18T16:31:54.939Z,2.30
2019-05-18T16:34:25.130Z,2.70
2019-05-18T16:36:55.073Z,2.00
2019-05-18T16:39:24.960Z,2.63
2019-05-18T16:41:54.799Z,2.03
2019-05-18T16:44:24.630Z,2.60
2019-05-18T16:46:54.426Z,2.30
2019-05-18T16:49:24.302Z,2.80
2019-05-18T16:51:54.063Z,2.53
2019-05-18T16:54:23.792Z,3.13
2019-05-18T16:56:53.558Z,2.67
2019-05-18T16:59:23.807Z,2.20
2019-05-18T17:01:53.496Z,2.93
2019-05-18T17:04:23.944Z,2.30
2019-05-18T17:06:54.034Z,1.83
2019-05-18T17:09:23.812Z,2.50
2019-05-18T17:11:53.571Z,2.80
2019-05-18T17:14:23.301Z,2.83
2019-05-18T17:16:53.059Z,4.40
2019-05-18T17:19:23.810Z,3.07
2019-05-18T17:21:55.027Z,3.17
2019-05-18T17:24:24.819Z,2.10
2019-05-18T17:26:54.514Z,2.77
2019-05-18T17:29:24.318Z,2.43
2019-05-18T17:31:54.016Z,2.63
2019-05-18T17:34:23.843Z,2.73
2019-05-18T17:36:53.570Z,2.17
2019-05-18T17:39:23.324Z,2.60
2019-05-18T17:41:53.146Z,2.67
2019-05-18T17:44:22.814Z,2.87
2019-05-18T17:46:52.672Z,7.47
2019-05-18T17:49:26.923Z,4.37
2019-05-18T17:51:53.904Z,4.17
2019-05-18T17:54:23.657Z,4.27
2019-05-18T17:57:07.572Z,2.70
2019-05-18T17:59:24.852Z,3.50
2019-05-18T18:01:54.630Z,6.43
2019-05-18T18:04:24.381Z,6.40
2019-05-18T18:06:54.176Z,10.10
2019-05-18T18:09:24.211Z,7.70
2019-05-18T18:11:54.164Z,5.63
2019-05-18T18:14:23.848Z,7.40
2019-05-18T18:16:53.701Z,10.13
2019-05-18T18:19:23.481Z,7.27
2019-05-18T18:21:53.476Z,7.27
2019-05-18T18:24:23.383Z,6.10
2019-05-18T18:26:53.166Z,7.63
2019-05-18T18:29:22.933Z,10.17
2019-05-18T18:31:52.689Z,8.20
2019-05-18T18:34:22.407Z,12.20
2019-05-18T18:36:52.180Z,10.57
2019-05-18T18:39:21.926Z,9.83
2019-05-18T18:41:51.660Z,11.13
2019-05-18T18:44:21.408Z,13.70
2019-05-18T18:46:53.902Z,10.80
2019-05-18T18:49:23.764Z,10.20
2019-05-18T18:51:53.712Z,7.97
2019-05-18T18:54:23.677Z,11.97
2019-05-18T18:56:53.441Z,11.20
2019-05-18T18:59:23.259Z,10.77
2019-05-18T19:01:53.331Z,10.03
2019-05-18T19:04:23.184Z,10.93
2019-05-18T19:06:58.891Z,11.10
2019-05-18T19:09:29.934Z,11.50
2019-05-18T19:11:59.698Z,10.13
2019-05-18T19:14:29.526Z,9.83
2019-05-18T19:16:59.306Z,10.10
2019-05-18T19:19:31.252Z,10.37
2019-05-18T19:22:01.140Z,9.20
2019-05-18T19:24:31.007Z,10.33
2019-05-18T19:27:00.858Z,7.90
2019-05-18T19:29:30.573Z,8.03
2019-05-18T19:32:00.307Z,9.57
2019-05-18T19:34:30.034Z,10.57
2019-05-18T19:36:59.845Z,10.80
2019-05-18T19:39:29.701Z,17.90
2019-05-18T19:41:59.527Z,14.87
2019-05-18T19:44:29.311Z,17.10
2019-05-18T19:46:59.078Z,16.80
2019-05-18T19:49:28.798Z,20.77
2019-05-18T19:51:58.624Z,21.70
2019-05-18T19:54:28.385Z,20.20
2019-05-18T19:56:58.223Z,19.53
2019-05-18T19:59:28.197Z,18.90
2019-05-18T20:01:57.923Z,19.40
2019-05-18T20:04:27.780Z,24.30
2019-05-18T20:06:57.627Z,21.60
2019-05-18T20:09:27.391Z,21.87
2019-05-18T20:11:57.115Z,20.97
2019-05-18T20:14:26.888Z,19.80
2019-05-18T20:16:56.960Z,21.10
2019-05-18T20:19:38.600Z,21.43
2019-05-18T20:21:58.383Z,23.20
2019-05-18T20:24:28.109Z,21.97
2019-05-18T20:26:57.825Z,21.13
2019-05-18T20:29:27.501Z,21.33
2019-05-18T20:31:57.225Z,22.83
2019-05-18T20:34:26.953Z,21.07
2019-05-18T20:36:56.712Z,20.10
2019-05-18T20:39:26.390Z,22.13
2019-05-18T20:41:56.104Z,19.10
2019-05-18T20:44:25.817Z,23.07
2019-05-18T20:46:55.531Z,22.53
2019-05-18T20:49:25.327Z,19.30
2019-05-18T20:51:55.064Z,16.53
2019-05-18T20:54:24.818Z,18.43
2019-05-18T20:56:54.555Z,18.83
2019-05-18T20:59:24.248Z,19.43
2019-05-18T21:01:54.014Z,20.50
2019-05-18T21:04:23.819Z,45.57
2019-05-18T21:06:53.589Z,41.37
2019-05-18T21:09:23.357Z,26.77
2019-05-18T21:11:53.110Z,16.43
2019-05-18T21:14:22.902Z,14.10
2019-05-18T21:16:52.744Z,12.97
2019-05-18T21:19:22.562Z,13.77
2019-05-18T21:21:52.344Z,14.60
2019-05-18T21:24:22.645Z,17.30
2019-05-18T21:26:52.421Z,16.53
2019-05-18T21:29:22.110Z,13.20
2019-05-18T21:31:51.902Z,15.03
2019-05-18T21:34:21.604Z,13.90
2019-05-18T21:36:51.335Z,14.80
2019-05-18T21:39:21.102Z,14.70
2019-05-18T21:41:50.835Z,14.77
2019-05-18T21:44:23.393Z,15.90
2019-05-18T21:46:53.175Z,15.60
2019-05-18T21:49:22.899Z,14.73
2019-05-18T21:51:52.671Z,13.57
2019-05-18T21:54:22.418Z,15.30
2019-05-18T21:56:52.182Z,13.43
2019-05-18T21:59:21.886Z,14.57
2019-05-18T22:01:51.697Z,15.50
2019-05-18T22:04:21.511Z,12.90
2019-05-18T22:06:51.353Z,12.13
2019-05-18T22:09:21.054Z,12.90
2019-05-18T22:11:50.856Z,11.80
2019-05-18T22:14:21.111Z,11.60
2019-05-18T22:16:50.902Z,11.40
2019-05-18T22:19:20.984Z,12.63
2019-05-18T22:21:50.758Z,10.37
2019-05-18T22:24:20.469Z,12.20
2019-05-18T22:26:50.280Z,10.97
2019-05-18T22:29:20.044Z,12.00
2019-05-18T22:31:49.874Z,12.67
2019-05-18T22:34:19.678Z,12.40
2019-05-18T22:36:54.321Z,12.20
2019-05-18T22:39:26.583Z,11.53
2019-05-18T22:41:55.438Z,12.80
2019-05-18T22:44:25.212Z,10.93
2019-05-18T22:46:55.006Z,13.07
2019-05-18T22:49:24.721Z,11.97
2019-05-18T22:51:54.594Z,11.70
2019-05-18T22:54:24.317Z,12.93
2019-05-18T22:56:54.126Z,11.53
2019-05-18T22:59:26.170Z,11.37
2019-05-18T23:01:55.909Z,13.00
2019-05-18T23:04:25.700Z,12.27
2019-05-18T23:06:55.799Z,12.30
2019-05-18T23:09:25.524Z,13.03
2019-05-18T23:11:55.214Z,12.53
2019-05-18T23:14:25.010Z,12.03
2019-05-18T23:16:54.759Z,12.93
2019-05-18T23:19:24.866Z,13.03
2019-05-18T23:21:57.393Z,12.60
2019-05-18T23:24:27.358Z,46.80
2019-05-18T23:26:57.541Z,14.73
2019-05-18T23:29:28.116Z,12.83
2019-05-18T23:31:58.461Z,14.17
2019-05-18T23:34:28.251Z,14.10
2019-05-18T23:36:58.004Z,14.93
2019-05-18T23:39:27.738Z,14.60
2019-05-18T23:41:57.442Z,13.30
2019-05-18T23:44:27.284Z,14.73
2019-05-18T23:46:56.996Z,13.20
2019-05-18T23:49:26.794Z,13.03
2019-05-18T23:51:56.616Z,13.37
2019-05-18T23:54:28.257Z,14.50
2019-05-18T23:56:58.092Z,13.83
2019-05-18T23:59:27.866Z,14.17
